Time;durP1;ratioP1;P1;durP2;ratioP2;P2;SDS_P1;SDS_P2;PMS_P1;PMS_P2;Temp;Humidity;BMP_temperature;BMP_pressure;BME280_temperature;BME280_humidity;BME280_pressure;Samples;Min_cycle;Max_cycle;Signal;HPM_P1;HPM_P2
2022/03/18 00:01:43;;;;;;;17.33;6.43;;;;;;;2.39;68.19;103803.00;4941897;28;20070;-91
2022/03/18 00:04:08;;;;;;;16.70;6.33;;;;;;;2.34;68.29;103801.84;4945261;29;20367;-92
2022/03/18 00:06:34;;;;;;;13.93;5.50;;;;;;;2.28;68.44;103798.13;4942532;28;20035;-91
2022/03/18 00:08:59;;;;;;;12.73;5.50;;;;;;;2.27;68.67;103795.47;4943605;28;20027;-92
2022/03/18 00:11:25;;;;;;;12.73;5.47;;;;;;;2.26;68.25;103804.84;4946884;29;20118;-91
2022/03/18 00:13:50;;;;;;;10.07;5.17;;;;;;;2.21;69.08;103816.56;4943260;29;20063;-90
2022/03/18 00:16:15;;;;;;;16.80;5.27;;;;;;;2.12;69.57;103811.78;4945036;28;20027;-91
2022/03/18 00:18:40;;;;;;;11.17;5.00;;;;;;;2.05;70.05;103819.91;4942750;28;20075;-91
2022/03/18 00:21:07;;;;;;;13.10;5.37;;;;;;;1.99;70.40;103828.94;4943426;29;20122;-91
2022/03/18 00:23:32;;;;;;;12.37;5.60;;;;;;;1.96;70.10;103830.53;4941913;29;20086;-90
2022/03/18 00:25:57;;;;;;;17.07;6.87;;;;;;;1.92;70.29;103826.03;4939947;28;20114;-91
2022/03/18 00:28:23;;;;;;;16.53;7.37;;;;;;;1.93;69.77;103824.34;4943407;29;20027;-91
2022/03/18 00:30:49;;;;;;;20.30;7.77;;;;;;;1.92;69.91;103832.84;4943635;29;20167;-90
2022/03/18 00:33:14;;;;;;;12.63;6.00;;;;;;;1.89;69.34;103825.84;4956511;28;20167;-91
2022/03/18 00:35:39;;;;;;;11.63;5.13;;;;;;;1.89;69.47;103828.41;4944597;28;20122;-91
2022/03/18 00:38:05;;;;;;;13.97;6.57;;;;;;;1.89;69.53;103825.84;4943180;28;20034;-91
2022/03/18 00:40:31;;;;;;;11.97;5.23;;;;;;;1.86;69.40;103823.13;4943638;29;20031;-91
2022/03/18 00:42:56;;;;;;;15.70;6.83;;;;;;;1.89;68.68;103820.69;4944020;28;20114;-91
2022/03/18 00:45:22;;;;;;;15.40;6.60;;;;;;;1.89;69.16;103830.97;4942006;28;20471;-92
2022/03/18 00:53:15;;;;;;;11.93;5.90;;;;;;;1.73;68.40;103831.75;4941963;29;20051;-92
2022/03/18 00:55:40;;;;;;;12.07;5.67;;;;;;;1.68;68.83;103835.72;4942203;28;20036;-92
2022/03/18 00:58:05;;;;;;;9.80;5.37;;;;;;;1.64;69.13;103841.47;4949073;28;20055;-91
2022/03/18 01:00:31;;;;;;;16.20;6.50;;;;;;;1.57;69.49;103844.47;4946606;28;20034;-91
2022/03/18 01:02:56;;;;;;;11.17;5.73;;;;;;;1.50;69.70;103844.09;4948686;28;20537;-91
2022/03/18 01:05:21;;;;;;;13.03;6.00;;;;;;;1.48;70.18;103855.06;4948670;28;20407;-91
2022/03/18 01:07:47;;;;;;;12.00;5.60;;;;;;;1.40;69.85;103856.25;4947313;28;20038;-91
2022/03/18 01:10:12;;;;;;;10.37;5.80;;;;;;;1.35;69.70;103864.59;4947321;28;20033;-92
2022/03/18 01:12:37;;;;;;;13.30;6.23;;;;;;;1.33;69.59;103863.59;4942654;28;20058;-91
2022/03/18 01:15:03;;;;;;;13.70;6.23;;;;;;;1.31;69.77;103866.84;4939828;28;20031;-91
2022/03/18 01:17:28;;;;;;;14.50;5.67;;;;;;;1.27;69.87;103860.63;4944876;28;20475;-92
2022/03/18 01:19:54;;;;;;;11.53;6.03;;;;;;;1.28;70.18;103862.41;4942818;28;20038;-90
2022/03/18 01:22:19;;;;;;;11.47;6.07;;;;;;;1.24;71.00;103865.56;4987180;28;20019;-92
2022/03/18 01:24:44;;;;;;;11.37;5.30;;;;;;;1.21;70.57;103856.03;4967011;28;20083;-90
2022/03/18 01:27:10;;;;;;;11.93;5.67;;;;;;;1.25;70.19;103866.47;4956255;28;20043;-90
2022/03/18 01:29:35;;;;;;;13.57;5.77;;;;;;;1.23;70.39;103866.38;4948670;28;20390;-91
2022/03/18 01:32:01;;;;;;;12.53;5.77;;;;;;;1.22;70.26;103864.59;4946881;28;20090;-92
2022/03/18 01:34:27;;;;;;;12.27;5.40;;;;;;;1.14;70.79;103858.97;4944465;28;20023;-92
2022/03/18 01:36:52;;;;;;;9.80;5.13;;;;;;;1.13;70.94;103871.72;4943423;28;20023;-90
2022/03/18 01:39:17;;;;;;;10.03;5.13;;;;;;;1.13;70.15;103867.47;4966061;28;20110;-91
2022/03/18 01:41:43;;;;;;;12.93;5.33;;;;;;;1.04;69.77;103867.78;4943001;28;20031;-92
2022/03/18 01:44:12;;;;;;;10.77;5.10;;;;;;;1.02;70.09;103874.50;4941957;28;20082;-90
2022/03/18 01:46:38;;;;;;;10.83;5.50;;;;;;;0.99;70.14;103870.84;4946943;28;20538;-91
2022/03/18 01:49:05;;;;;;;11.27;5.27;;;;;;;0.96;69.99;103874.13;4955027;28;20019;-92
2022/03/18 01:51:30;;;;;;;10.20;5.67;;;;;;;0.95;70.38;103869.78;4946780;28;20502;-91
2022/03/18 01:56:40;;;;;;;13.27;5.17;;;;;;;0.96;70.55;103874.13;4960868;28;20038;-90
2022/03/18 01:59:06;;;;;;;9.70;5.03;;;;;;;0.96;70.40;103874.13;4959347;28;20058;-91
2022/03/18 02:01:32;;;;;;;9.70;4.90;;;;;;;0.93;69.91;103866.22;4945361;28;20023;-91
2022/03/18 02:03:57;;;;;;;11.00;4.80;;;;;;;0.91;70.62;103865.22;4959649;28;20038;-91
2022/03/18 02:06:23;;;;;;;10.63;5.47;;;;;;;0.93;70.45;103863.66;4946667;28;20139;-91
2022/03/18 02:08:48;;;;;;;11.63;5.60;;;;;;;0.86;70.29;103857.25;4946030;28;20073;-91
2022/03/18 02:11:14;;;;;;;10.40;5.27;;;;;;;0.81;69.66;103852.63;4943562;28;20027;-91
2022/03/18 02:13:39;;;;;;;11.87;5.43;;;;;;;0.74;68.74;103859.06;4960650;28;20074;-91
2022/03/18 02:16:05;;;;;;;13.27;5.40;;;;;;;0.70;69.77;103863.06;4941969;28;20459;-91
2022/03/18 02:18:30;;;;;;;10.93;5.67;;;;;;;0.67;70.04;103875.72;4943261;28;20515;-91
2022/03/18 02:20:55;;;;;;;10.13;5.33;;;;;;;0.66;70.67;103878.16;4956603;28;20111;-91
2022/03/18 02:23:21;;;;;;;13.30;5.37;;;;;;;0.64;71.08;103880.63;4944877;28;20467;-92
2022/03/18 02:25:47;;;;;;;10.10;5.03;;;;;;;0.59;70.47;103876.88;4936817;28;20050;-90
2022/03/18 02:28:12;;;;;;;14.90;5.67;;;;;;;0.55;70.95;103882.59;4934534;28;20031;-91
2022/03/18 02:30:38;;;;;;;11.87;5.67;;;;;;;0.50;70.78;103886.53;4941773;28;20559;-91
2022/03/18 02:33:04;;;;;;;9.30;4.77;;;;;;;0.43;71.20;103891.25;4941373;28;20043;-91
2022/03/18 02:35:29;;;;;;;9.43;4.77;;;;;;;0.40;72.13;103896.16;4956886;28;20058;-91
2022/03/18 02:37:57;;;;;;;10.90;4.77;;;;;;;0.36;72.36;103898.44;4941336;28;20027;-91
2022/03/18 02:40:24;;;;;;;9.40;4.60;;;;;;;0.32;73.13;103897.34;4943212;28;20430;-91
2022/03/18 02:42:49;;;;;;;13.40;4.67;;;;;;;0.32;71.46;103894.78;4946972;28;20038;-92
2022/03/18 02:45:14;;;;;;;8.77;4.80;;;;;;;0.34;71.32;103897.44;4943277;28;20169;-91
2022/03/18 02:47:39;;;;;;;11.80;4.77;;;;;;;0.33;71.40;103899.13;4938643;28;20039;-91
2022/03/18 02:50:06;;;;;;;11.93;5.27;;;;;;;0.35;71.46;103907.78;4939313;28;20034;-91
2022/03/18 02:52:31;;;;;;;13.13;4.77;;;;;;;0.31;71.40;103903.25;4959765;28;20034;-91
2022/03/18 02:54:57;;;;;;;10.33;4.80;;;;;;;0.30;71.40;103894.66;4943508;28;20035;-91
2022/03/18 02:57:22;;;;;;;10.60;4.83;;;;;;;0.24;70.42;103895.94;4943570;28;20043;-92
2022/03/18 02:59:48;;;;;;;10.80;5.07;;;;;;;0.21;70.71;103904.31;4947615;28;20031;-90
2022/03/18 03:02:14;;;;;;;9.57;4.77;;;;;;;0.20;70.48;103901.63;4942294;28;20039;-91
2022/03/18 03:07:58;;;;;;;9.00;4.70;;;;;;;0.19;70.91;103897.28;4945177;28;20034;-91
2022/03/18 03:10:11;;;;;;;10.50;4.70;;;;;;;0.22;71.40;103912.88;4957433;28;20042;-90
2022/03/18 03:12:36;;;;;;;12.07;5.10;;;;;;;0.22;71.14;103916.34;4941051;28;20419;-91
2022/03/18 03:15:02;;;;;;;9.23;5.10;;;;;;;0.15;71.23;103916.69;4960519;28;20046;-91
2022/03/18 03:17:27;;;;;;;12.40;5.10;;;;;;;0.12;71.71;103913.91;4960852;28;20109;-91
2022/03/18 03:19:54;;;;;;;10.57;4.53;;;;;;;0.13;72.51;103916.59;4946323;28;20050;-92
2022/03/18 03:22:20;;;;;;;8.07;4.73;;;;;;;0.12;72.89;103925.06;4941064;28;20027;-91
2022/03/18 03:24:45;;;;;;;9.00;4.43;;;;;;;0.11;72.61;103935.19;4940709;28;20041;-91
2022/03/18 03:27:10;;;;;;;9.60;5.10;;;;;;;0.11;71.77;103938.66;4940569;28;20035;-90
2022/03/18 03:29:35;;;;;;;7.17;4.10;;;;;;;0.11;71.98;103933.53;4940537;28;20146;-91
2022/03/18 03:32:01;;;;;;;10.13;5.00;;;;;;;0.13;71.10;103923.38;4960834;28;20039;-93
2022/03/18 03:34:26;;;;;;;9.57;5.30;;;;;;;0.11;71.60;103922.38;4946367;28;20541;-90
2022/03/18 03:36:52;;;;;;;13.37;5.37;;;;;;;0.06;70.51;103932.31;4958551;28;20026;-91
2022/03/18 03:39:17;;;;;;;9.27;4.57;;;;;;;0.06;70.98;103939.13;4946639;28;20054;-90
2022/03/18 03:41:42;;;;;;;10.30;4.80;;;;;;;0.06;71.75;103934.88;4941758;28;20031;-91
2022/03/18 03:44:08;;;;;;;10.93;4.80;;;;;;;0.06;71.57;103941.69;4948867;28;20411;-91
2022/03/18 03:46:34;;;;;;;8.70;4.80;;;;;;;0.04;71.06;103938.13;4948450;28;20030;-91
2022/03/18 03:48:59;;;;;;;12.17;5.03;;;;;;;0.05;71.80;103939.91;4943980;28;20035;-91
2022/03/18 03:51:25;;;;;;;8.03;4.77;;;;;;;0.04;71.44;103940.69;4947752;28;20394;-92
2022/03/18 03:53:50;;;;;;;10.33;5.23;;;;;;;0.02;72.23;103953.34;4945450;28;20470;-91
2022/03/18 03:56:15;;;;;;;9.50;5.10;;;;;;;-0.01;72.08;103961.72;4948466;28;20091;-91
2022/03/18 03:58:41;;;;;;;9.43;4.93;;;;;;;-0.04;72.41;103948.72;4964198;28;20117;-91
2022/03/18 04:01:06;;;;;;;11.30;4.97;;;;;;;-0.01;71.63;103948.06;4944507;28;20031;-92
2022/03/18 04:03:32;;;;;;;10.17;5.47;;;;;;;-0.03;71.94;103952.19;4964480;28;20041;-91
2022/03/18 04:05:57;;;;;;;11.60;5.20;;;;;;;-0.05;72.32;103941.81;4946301;28;20066;-92
2022/03/18 04:08:23;;;;;;;9.40;5.10;;;;;;;-0.05;72.05;103962.28;4946164;28;20090;-91
2022/03/18 04:10:48;;;;;;;9.40;5.10;;;;;;;-0.06;72.63;103969.88;4944651;28;20442;-91
2022/03/18 04:13:13;;;;;;;9.87;5.03;;;;;;;-0.09;72.29;103974.78;4963928;28;20058;-91
2022/03/18 04:15:39;;;;;;;9.97;4.53;;;;;;;-0.12;72.97;103977.13;4947565;28;20042;-91
2022/03/18 04:18:04;;;;;;;9.13;4.37;;;;;;;-0.14;73.50;103981.25;4949434;28;20145;-91
2022/03/18 04:20:30;;;;;;;8.73;4.43;;;;;;;-0.19;73.41;103979.28;4989246;28;20023;-91
2022/03/18 04:22:55;;;;;;;8.43;4.23;;;;;;;-0.22;73.86;103983.25;4949681;28;20062;-91
2022/03/18 04:25:20;;;;;;;8.37;4.37;;;;;;;-0.23;73.69;103989.16;4945746;28;20462;-91
2022/03/18 04:27:46;;;;;;;8.53;4.43;;;;;;;-0.24;73.54;103993.41;4950792;28;20065;-91
2022/03/18 04:30:13;;;;;;;9.50;4.73;;;;;;;-0.24;73.76;104006.19;4945004;28;20027;-90
2022/03/18 04:32:39;;;;;;;6.70;4.23;;;;;;;-0.23;73.76;104007.06;4947095;28;20038;-91
2022/03/18 04:35:06;;;;;;;7.60;4.37;;;;;;;-0.24;73.18;104001.09;4965375;28;20058;-91
2022/03/18 04:37:32;;;;;;;9.70;4.30;;;;;;;-0.24;72.94;103998.53;4945288;28;20037;-91
2022/03/18 04:39:57;;;;;;;8.07;4.67;;;;;;;-0.26;72.43;103997.53;4966013;28;20030;-91
2022/03/18 04:42:22;;;;;;;9.83;4.57;;;;;;;-0.27;71.48;104005.97;4962634;28;20044;-91
2022/03/18 04:44:48;;;;;;;8.30;4.47;;;;;;;-0.29;72.10;104001.53;4949621;28;20116;-91
2022/03/18 04:47:13;;;;;;;7.63;4.50;;;;;;;-0.30;71.83;104005.75;4960072;28;20023;-91
2022/03/18 04:49:39;;;;;;;10.53;4.90;;;;;;;-0.33;72.04;104003.88;4963929;28;20023;-92
2022/03/18 04:52:05;;;;;;;10.20;4.97;;;;;;;-0.35;71.55;104007.13;4947515;28;20034;-92
2022/03/18 04:54:30;;;;;;;8.97;4.80;;;;;;;-0.38;71.81;104006.91;4961428;28;20031;-91
2022/03/18 04:59:40;;;;;;;11.63;5.20;;;;;;;-0.49;72.07;104009.56;4959984;28;20402;-91
2022/03/18 05:02:06;;;;;;;10.67;5.10;;;;;;;-0.51;72.14;104023.91;4965318;28;20034;-91
2022/03/18 05:04:31;;;;;;;12.87;5.60;;;;;;;-0.52;72.34;104018.69;4960738;28;20031;-92
2022/03/18 05:06:56;;;;;;;10.43;5.97;;;;;;;-0.50;72.92;104022.25;4943232;28;20051;-92
2022/03/18 05:09:23;;;;;;;11.00;6.10;;;;;;;-0.48;72.86;104029.25;4946529;28;20035;-92
2022/03/18 05:11:48;;;;;;;13.13;6.00;;;;;;;-0.47;73.09;104025.91;4945010;28;20023;-91
2022/03/18 05:14:14;;;;;;;13.47;6.40;;;;;;;-0.46;72.83;104037.06;4944867;28;20026;-90
2022/03/18 05:16:42;;;;;;;12.27;6.33;;;;;;;-0.45;72.63;104041.38;4947210;28;20053;-91
2022/03/18 05:19:07;;;;;;;11.63;6.37;;;;;;;-0.47;73.53;104048.94;4944286;28;20023;-91
2022/03/18 05:21:32;;;;;;;11.27;5.83;;;;;;;-0.47;73.07;104043.81;4944911;28;20027;-91
2022/03/18 05:23:57;;;;;;;15.67;6.37;;;;;;;-0.44;73.30;104039.69;4949214;28;20042;-90
2022/03/18 05:26:23;;;;;;;13.83;6.60;;;;;;;-0.46;71.82;104049.84;4959600;28;20054;-91
2022/03/18 05:28:48;;;;;;;15.10;7.63;;;;;;;-0.47;72.92;104059.16;4959432;28;20025;-91
2022/03/18 05:31:13;;;;;;;14.13;6.57;;;;;;;-0.48;72.86;104053.94;4947704;28;20114;-91
2022/03/18 05:33:39;;;;;;;14.50;7.00;;;;;;;-0.48;72.87;104064.19;4949938;28;20379;-91
2022/03/18 05:36:04;;;;;;;15.03;7.23;;;;;;;-0.50;72.55;104058.94;4943936;28;20034;-91
2022/03/18 05:38:30;;;;;;;12.73;6.77;;;;;;;-0.53;72.46;104066.41;4943272;28;20060;-91
2022/03/18 05:40:56;;;;;;;12.10;6.73;;;;;;;-0.57;72.37;104071.16;4947778;28;20031;-91
2022/03/18 05:43:22;;;;;;;12.27;6.40;;;;;;;-0.60;72.66;104059.06;4961430;28;20027;-91
2022/03/18 05:45:48;;;;;;;12.30;6.70;;;;;;;-0.57;72.90;104063.50;4938974;28;20035;-92
2022/03/18 05:48:13;;;;;;;14.53;6.60;;;;;;;-0.57;72.14;104061.84;4944019;28;20031;-91
2022/03/18 05:50:39;;;;;;;12.97;6.80;;;;;;;-0.59;71.82;104058.28;4962048;28;20035;-92
2022/03/18 05:53:04;;;;;;;11.60;6.07;;;;;;;-0.64;70.74;104060.50;4947488;28;20019;-92
2022/03/18 05:56:52;;;;;;;10.43;5.80;;;;;;;-0.66;72.16;104056.03;4978969;28;20054;-91
2022/03/18 05:58:18;;;;;;;12.90;5.80;;;;;;;-0.65;71.97;104058.72;4962582;28;20046;-91
2022/03/18 06:00:45;;;;;;;14.80;5.80;;;;;;;-0.69;72.71;104059.28;4941540;28;20073;-91
2022/03/18 06:03:10;;;;;;;11.53;5.47;;;;;;;-0.71;72.91;104060.81;4943060;28;20474;-91
2022/03/18 06:05:35;;;;;;;10.03;5.70;;;;;;;-0.71;72.79;104070.19;4960037;28;20037;-91
2022/03/18 06:11:48;;;;;;;9.23;4.87;;;;;;;-0.70;72.84;104074.53;4944153;28;20460;-91
2022/03/18 06:13:31;;;;;;;9.67;4.87;;;;;;;-0.71;73.71;104082.97;4959553;28;20053;-90
2022/03/18 06:15:56;;;;;;;11.03;5.27;;;;;;;-0.67;73.29;104095.16;4959672;28;20035;-92
2022/03/18 06:18:21;;;;;;;11.17;5.30;;;;;;;-0.62;73.95;104088.75;4943588;28;20058;-92
2022/03/18 06:20:50;;;;;;;12.33;5.60;;;;;;;-0.58;74.09;104090.75;4943657;28;20471;-92
2022/03/18 06:23:16;;;;;;;9.20;5.33;;;;;;;-0.55;73.10;104096.09;4941021;28;20501;-92
2022/03/18 06:25:43;;;;;;;10.63;5.00;;;;;;;-0.51;73.38;104103.19;4948366;28;20046;-92
2022/03/18 06:28:08;;;;;;;11.70;5.23;;;;;;;-0.48;73.05;104107.66;4944793;28;20399;-91
2022/03/18 06:30:34;;;;;;;15.93;5.50;;;;;;;-0.45;73.89;104113.00;4945175;28;20464;-91
2022/03/18 06:32:59;;;;;;;16.70;5.50;;;;;;;-0.40;73.87;104121.00;4962137;28;20496;-93
2022/03/18 06:35:25;;;;;;;13.73;5.13;;;;;;;-0.36;74.05;104118.78;4941118;28;20038;-91
2022/03/18 06:37:50;;;;;;;15.70;5.93;;;;;;;-0.30;73.96;104118.31;4945114;28;20043;-91
2022/03/18 06:40:16;;;;;;;10.93;5.30;;;;;;;-0.27;74.58;104113.44;4941632;28;20034;-91
2022/03/18 06:42:41;;;;;;;18.63;5.53;;;;;;;-0.21;74.13;104119.00;4945800;28;20061;-91
2022/03/18 06:45:07;;;;;;;9.73;5.00;;;;;;;-0.14;73.92;104114.31;4941224;28;20039;-91
2022/03/18 06:47:32;;;;;;;12.30;5.87;;;;;;;-0.09;73.12;104115.53;4939099;28;20035;-91
2022/03/18 06:49:58;;;;;;;13.57;5.83;;;;;;;-0.06;74.41;104124.31;4943025;28;20467;-91
2022/03/18 06:52:24;;;;;;;14.13;5.83;;;;;;;0.01;74.83;104122.22;4944318;28;20118;-90
2022/03/18 06:54:50;;;;;;;18.07;6.07;;;;;;;0.07;74.73;104138.88;4945976;28;20023;-91
2022/03/18 06:57:15;;;;;;;10.63;6.20;;;;;;;0.11;74.56;104135.78;4937048;28;20053;-91
2022/03/18 06:59:40;;;;;;;11.33;5.70;;;;;;;0.17;74.51;104137.00;4941706;28;20042;-91
2022/03/18 07:02:06;;;;;;;12.20;6.00;;;;;;;0.22;74.76;104131.41;4949345;28;20046;-92
2022/03/18 07:04:31;;;;;;;10.63;5.90;;;;;;;0.27;74.80;104136.84;4952593;28;20038;-90
2022/03/18 07:06:57;;;;;;;11.73;5.67;;;;;;;0.33;75.09;104138.94;4956148;28;20035;-90
2022/03/18 07:09:22;;;;;;;10.00;5.43;;;;;;;0.39;74.98;104135.16;4943531;28;20524;-93
2022/03/18 07:11:47;;;;;;;13.13;5.33;;;;;;;0.45;75.40;104130.47;4936337;28;20043;-91
2022/03/18 07:14:13;;;;;;;10.97;5.30;;;;;;;0.52;75.10;104138.56;4946318;28;20034;-91
2022/03/18 07:19:23;;;;;;;10.97;5.97;;;;;;;0.67;75.79;104141.31;4977224;28;20050;-91
2022/03/18 07:21:49;;;;;;;12.47;6.10;;;;;;;0.75;76.19;104138.47;4948691;28;20041;-91
2022/03/18 07:24:14;;;;;;;11.03;5.67;;;;;;;0.84;76.49;104145.03;4941348;28;20034;-91
2022/03/18 07:26:39;;;;;;;10.73;5.67;;;;;;;0.91;76.88;104149.78;4940265;28;20494;-91
2022/03/18 07:29:05;;;;;;;10.30;5.70;;;;;;;1.01;76.91;104138.47;4948228;28;20031;-92
2022/03/18 07:31:31;;;;;;;11.73;6.03;;;;;;;1.10;77.39;104144.22;4954775;28;20039;-92
2022/03/18 07:33:56;;;;;;;10.03;6.20;;;;;;;1.19;77.85;104155.09;4937512;28;20710;-91
2022/03/18 07:36:22;;;;;;;12.63;6.93;;;;;;;1.30;77.77;104158.38;4959510;28;20023;-92
2022/03/18 07:38:47;;;;;;;15.23;6.60;;;;;;;1.42;78.67;104152.28;4942508;28;20090;-92
2022/03/18 07:41:13;;;;;;;11.87;6.63;;;;;;;1.51;78.17;104158.03;4938031;28;20031;-91
2022/03/18 07:43:38;;;;;;;10.20;6.40;;;;;;;1.62;78.79;104164.75;4938450;28;20042;-91
2022/03/18 07:46:03;;;;;;;10.43;6.60;;;;;;;1.72;78.96;104173.94;4945679;28;20286;-91
2022/03/18 07:48:29;;;;;;;14.27;7.03;;;;;;;1.83;78.84;104187.47;4942296;28;20023;-92
2022/03/18 07:50:55;;;;;;;14.83;6.47;;;;;;;1.94;79.16;104195.88;4961475;28;20097;-91
2022/03/18 07:53:20;;;;;;;13.30;6.87;;;;;;;2.03;79.27;104195.56;4941430;28;20208;-92
2022/03/18 07:55:46;;;;;;;11.70;6.90;;;;;;;2.15;78.81;104201.47;4937162;28;20058;-91
2022/03/18 07:58:11;;;;;;;15.53;7.13;;;;;;;2.23;79.60;104197.69;4939833;28;20052;-91
2022/03/18 08:00:36;;;;;;;13.93;7.47;;;;;;;2.35;79.15;104196.72;4920563;29;20107;-90
2022/03/18 08:03:02;;;;;;;14.23;7.27;;;;;;;2.46;78.80;104194.81;4917284;29;20095;-92
2022/03/18 08:05:28;;;;;;;12.97;7.73;;;;;;;2.55;78.77;104196.28;4917490;29;20031;-92
2022/03/18 08:07:53;;;;;;;12.47;7.77;;;;;;;2.67;78.70;104193.56;4924261;29;20091;-92
2022/03/18 08:10:19;;;;;;;17.73;8.57;;;;;;;2.78;78.66;104199.38;4914228;29;20041;-90
2022/03/18 08:12:46;;;;;;;13.03;7.77;;;;;;;2.89;78.40;104200.03;4920585;29;20044;-92
2022/03/18 08:15:13;;;;;;;13.67;8.00;;;;;;;3.01;78.78;104205.03;4926206;28;20105;-91
2022/03/18 08:17:40;;;;;;;13.23;7.70;;;;;;;3.12;78.74;104197.97;4928071;28;20039;-90
2022/03/18 08:20:07;;;;;;;16.07;7.67;;;;;;;3.24;78.95;104202.94;4944215;29;20034;-91
2022/03/18 08:22:37;;;;;;;14.40;7.20;;;;;;;3.36;79.05;104208.81;4921929;28;20036;-91
2022/03/18 08:25:04;;;;;;;15.57;7.20;;;;;;;3.49;79.00;104216.44;4929169;29;20443;-90
2022/03/18 08:27:29;;;;;;;12.77;6.57;;;;;;;3.61;78.57;104213.72;4923643;29;20063;-91
2022/03/18 08:29:59;;;;;;;12.10;6.67;;;;;;;3.75;78.56;104216.19;4928478;29;20066;-91
2022/03/18 08:32:26;;;;;;;16.30;7.27;;;;;;;3.87;78.57;104213.44;4926617;29;20055;-91
2022/03/18 08:34:51;;;;;;;11.83;6.63;;;;;;;3.97;77.86;104220.84;4927972;29;20036;-91
2022/03/18 08:37:56;;;;;;;16.90;6.70;;;;;;;4.09;77.94;104220.66;4923341;29;20086;-91
2022/03/18 08:40:03;;;;;;;12.47;6.00;;;;;;;4.21;77.37;104221.34;4940577;29;20118;-92
2022/03/18 08:42:28;;;;;;;10.67;5.60;;;;;;;4.34;77.51;104222.03;4925167;29;20068;-93
2022/03/18 08:44:54;;;;;;;9.50;5.00;;;;;;;4.46;75.85;104226.97;4935568;28;20031;-92
2022/03/18 08:56:11;;;;;;;8.13;4.30;;;;;;;4.93;75.10;104250.97;5851839;23;20036;31
2022/03/18 08:58:37;;;;;;;6.53;3.77;;;;;;;5.04;73.86;104248.97;4861812;29;20045;-89
2022/03/18 09:01:02;;;;;;;6.35;4.05;;;;;;;5.14;72.85;104251.19;4879682;29;20321;-89
2022/03/18 09:03:27;;;;;;;13.85;4.10;;;;;;;5.23;72.42;104258.53;4879830;29;20044;-89
2022/03/18 09:05:53;;;;;;;9.73;3.88;;;;;;;5.31;72.39;104255.53;4895476;29;20032;-90
2022/03/18 09:08:18;;;;;;;7.65;3.88;;;;;;;5.39;71.64;104258.50;4895461;29;20064;-90
2022/03/18 09:10:44;;;;;;;7.20;3.65;;;;;;;5.49;71.07;104259.88;4896394;29;20466;-90
2022/03/18 09:13:09;;;;;;;8.90;3.97;;;;;;;5.58;70.76;104255.19;4881161;29;20099;-90
2022/03/18 09:15:35;;;;;;;10.00;3.83;;;;;;;5.68;70.53;104256.53;4880853;29;20029;-88
2022/03/18 09:18:00;;;;;;;8.88;4.00;;;;;;;5.75;70.67;104262.91;4897713;29;20043;-89
2022/03/18 09:20:26;;;;;;;8.55;3.78;;;;;;;5.84;71.87;104273.69;4879902;29;20054;-88
2022/03/18 09:22:51;;;;;;;6.75;3.55;;;;;;;5.94;70.86;104264.69;4896094;29;20058;-88
2022/03/18 09:25:17;;;;;;;9.43;3.83;;;;;;;6.02;69.78;104262.50;4897383;29;20032;-87
2022/03/18 09:27:42;;;;;;;9.15;3.75;;;;;;;6.08;69.59;104273.16;4879954;29;20101;-88
2022/03/18 09:30:10;;;;;;;8.20;3.70;;;;;;;6.15;69.26;104269.16;4880231;29;20025;-88
2022/03/18 09:32:35;;;;;;;5.38;3.22;;;;;;;6.23;69.25;104262.69;4880281;29;20069;-88
2022/03/18 09:35:02;;;;;;;7.85;3.58;;;;;;;6.32;67.56;104277.75;4881487;29;20127;-87
2022/03/18 09:37:27;;;;;;;11.85;3.60;;;;;;;6.41;66.71;104272.09;4879954;29;20056;-87
2022/03/18 09:39:52;;;;;;;7.80;2.75;;;;;;;6.48;65.98;104274.16;4879052;29;20056;-89
2022/03/18 09:42:18;;;;;;;6.97;3.20;;;;;;;6.55;66.33;104276.22;4880083;29;20032;-87
2022/03/18 09:44:45;;;;;;;6.30;3.00;;;;;;;6.64;67.01;104273.19;4880173;29;20048;-87
2022/03/18 09:47:14;;;;;;;5.72;3.20;;;;;;;6.72;65.36;104278.72;5606750;23;20824;31
2022/03/18 09:50:10;;;;;;;7.35;2.90;;;;;;;6.78;63.91;104272.13;5049887;23;20071;-89
2022/03/18 10:08:05;;;;;;;9.00;2.00;;;;;;;7.36;58.03;104291.03;5139108;23;20063;-88
2022/03/18 10:10:43;;;;;;;5.28;1.83;;;;;;;7.47;60.78;104301.00;4916280;29;20027;-89
2022/03/18 10:13:09;;;;;;;5.28;1.90;;;;;;;7.53;57.39;104311.63;4919741;29;20095;-90
2022/03/18 10:15:35;;;;;;;5.13;1.98;;;;;;;7.62;57.84;104299.06;4913970;29;20035;-90
2022/03/18 10:18:01;;;;;;;6.03;1.90;;;;;;;7.69;57.09;104301.09;4897798;29;20036;-89
2022/03/18 10:20:30;;;;;;;5.15;1.88;;;;;;;7.74;57.58;104297.00;4898201;29;20032;-88
2022/03/18 10:23:01;;;;;;;7.57;2.00;;;;;;;7.82;57.14;104301.63;4914457;29;20051;-89
2022/03/18 10:25:41;;;;;;;5.30;2.33;;;;;;;7.89;58.01;104303.63;4915220;29;20043;-90
2022/03/18 10:28:08;;;;;;;4.57;1.77;;;;;;;7.94;56.39;104304.72;4896133;29;20027;-89
2022/03/18 10:30:34;;;;;;;5.72;2.10;;;;;;;7.99;55.94;104305.78;4913060;29;20095;-90
2022/03/18 10:33:00;;;;;;;3.42;1.73;;;;;;;8.04;55.42;104303.38;4917090;23;20052;-89
2022/03/18 10:38:28;;;;;;;4.28;1.67;;;;;;;8.17;57.71;104300.47;4932652;29;20515;-88
2022/03/18 10:40:54;;;;;;;5.72;1.90;;;;;;;8.26;56.89;104289.56;4910248;29;20051;-89
2022/03/18 10:43:20;;;;;;;6.18;2.17;;;;;;;8.32;56.29;104300.19;4891582;29;20029;-90
2022/03/18 10:46:06;;;;;;;5.45;1.98;;;;;;;8.37;57.33;104300.38;4889241;29;20043;-90
2022/03/18 10:48:32;;;;;;;4.60;1.55;;;;;;;8.45;56.31;104303.25;4915864;29;20291;-90
2022/03/18 10:51:03;;;;;;;6.45;1.67;;;;;;;8.52;54.00;104301.81;4901800;29;20063;-93
2022/03/18 10:53:30;;;;;;;5.22;1.75;;;;;;;8.56;54.96;104299.41;4910000;29;20021;-89
2022/03/18 10:56:00;;;;;;;4.82;1.73;;;;;;;8.64;55.22;104307.47;4897919;29;20016;-89
2022/03/18 10:58:29;;;;;;;5.82;1.70;;;;;;;8.72;55.64;104294.78;4893444;29;20051;-89
2022/03/18 11:00:58;;;;;;;7.50;2.38;;;;;;;8.77;54.50;104293.25;4888491;29;20028;-88
2022/03/18 11:03:25;;;;;;;6.30;2.20;;;;;;;8.81;53.66;104289.97;4894713;29;20087;-88
2022/03/18 11:05:53;;;;;;;5.15;1.80;;;;;;;8.86;55.33;104290.13;4896374;29;20417;-89
2022/03/18 11:08:23;;;;;;;5.15;2.30;;;;;;;8.91;54.81;104292.06;4888981;29;20028;-89
2022/03/18 11:13:51;;;;;;;7.40;2.30;;;;;;;9.09;56.67;104288.38;4910464;29;20183;-88
2022/03/18 11:16:21;;;;;;;4.13;2.22;;;;;;;9.15;55.42;104283.41;4908829;29;20024;-88
2022/03/18 11:18:48;;;;;;;4.97;2.17;;;;;;;9.21;54.08;104277.53;4890489;29;20052;-88
2022/03/18 11:21:21;;;;;;;4.78;2.10;;;;;;;9.26;53.64;104284.66;4907307;29;20031;-89
2022/03/18 11:23:49;;;;;;;7.80;2.50;;;;;;;9.32;53.31;104283.13;4892980;29;20032;-89
2022/03/18 11:26:18;;;;;;;7.70;3.10;;;;;;;9.38;54.38;104291.16;4896278;29;20440;-87
2022/03/18 11:28:45;;;;;;;7.03;2.78;;;;;;;9.44;55.31;104280.94;4907629;29;20054;-84
2022/03/18 11:31:17;;;;;;;6.15;2.78;;;;;;;9.52;56.13;104282.09;4906412;29;20025;-89
2022/03/18 11:34:08;;;;;;;7.55;2.75;;;;;;;9.64;55.33;104283.34;4890265;29;20052;-88
2022/03/18 11:36:35;;;;;;;6.85;2.80;;;;;;;9.70;54.22;104279.22;4888771;29;20035;-88
2022/03/18 11:39:03;;;;;;;5.28;2.58;;;;;;;9.79;54.69;104275.19;4891021;29;20032;-88
2022/03/18 11:41:45;;;;;;;6.80;2.65;;;;;;;9.91;55.15;104272.97;4870506;29;20108;-88
2022/03/18 11:44:11;;;;;;;7.88;2.72;;;;;;;10.02;53.07;104278.53;4887843;29;20485;-89
2022/03/18 11:46:36;;;;;;;6.07;2.70;;;;;;;10.09;52.85;104275.28;4884299;29;20032;-88
2022/03/18 11:49:06;;;;;;;7.35;2.78;;;;;;;10.20;53.10;104275.63;4888869;29;20545;-89
2022/03/18 11:51:32;;;;;;;5.45;2.72;;;;;;;10.29;52.08;104273.31;4895210;29;20028;-87
2022/03/18 11:54:02;;;;;;;4.90;2.65;;;;;;;10.41;52.63;104282.34;4878203;29;20032;-89
2022/03/18 11:56:39;;;;;;;6.75;2.78;;;;;;;10.54;52.67;104275.81;4896122;29;20088;-88
2022/03/18 11:59:29;;;;;;;6.32;2.50;;;;;;;10.69;53.24;104265.84;4874152;29;20040;-89
2022/03/18 12:02:06;;;;;;;5.70;2.40;;;;;;;10.88;52.17;104258.56;4898196;29;20037;-88
2022/03/18 12:04:44;;;;;;;4.80;2.17;;;;;;;11.06;51.70;104264.28;4887842;29;20085;-89
2022/03/18 12:07:27;;;;;;;5.85;2.58;;;;;;;11.20;49.73;104255.94;4870972;29;20037;-89
2022/03/18 12:09:57;;;;;;;4.28;2.42;;;;;;;11.35;49.90;104256.34;4871480;29;20078;-89
2022/03/18 12:12:43;;;;;;;6.80;2.65;;;;;;;11.55;51.77;104263.81;4885833;29;20032;-89
2022/03/18 12:15:16;;;;;;;6.85;2.22;;;;;;;11.78;49.12;104256.56;4888311;29;20029;-89